sensor_id;sensor_type;location;lat;lon;timestamp;pressure;altitude;pressure_sealevel;temperature;humidity
29505;BME280;16452;54.174;12.092;2023-01-15T00:00:57;99099.97;;;10.23;100.00
29505;BME280;16452;54.174;12.092;2023-01-15T00:03:23;99114.84;;;10.32;100.00
29505;BME280;16452;54.174;12.092;2023-01-15T00:05:49;99118.53;;;10.18;100.00
29505;BME280;16452;54.174;12.092;2023-01-15T00:08:15;99132.69;;;10.14;100.00
29505;BME280;16452;54.174;12.092;2023-01-15T00:10:41;99151.50;;;10.07;100.00
29505;BME280;16452;54.174;12.092;2023-01-15T00:13:07;99150.78;;;10.16;100.00
29505;BME280;16452;54.174;12.092;2023-01-15T00:15:35;99149.47;;;10.10;100.00
29505;BME280;16452;54.174;12.092;2023-01-15T00:18:02;99156.91;;;9.93;100.00
29505;BME280;16452;54.174;12.092;2023-01-15T00:20:28;99145.78;;;10.02;100.00
29505;BME280;16452;54.174;12.092;2023-01-15T00:22:53;99156.09;;;10.14;100.00
29505;BME280;16452;54.174;12.092;2023-01-15T00:25:20;99164.78;;;9.80;100.00
29505;BME280;16452;54.174;12.092;2023-01-15T00:28:05;99168.13;;;9.82;100.00
29505;BME280;16452;54.174;12.092;2023-01-15T00:30:30;99184.94;;;9.89;100.00
29505;BME280;16452;54.174;12.092;2023-01-15T00:32:57;99186.19;;;9.72;100.00
29505;BME280;16452;54.174;12.092;2023-01-15T00:35:24;99188.44;;;9.77;100.00
29505;BME280;16452;54.174;12.092;2023-01-15T00:37:50;99180.00;;;9.62;100.00
29505;BME280;16452;54.174;12.092;2023-01-15T00:40:18;99175.03;;;9.59;100.00
29505;BME280;16452;54.174;12.092;2023-01-15T00:42:44;99160.47;;;9.57;100.00
29505;BME280;16452;54.174;12.092;2023-01-15T00:45:11;99158.69;;;9.57;100.00
29505;BME280;16452;54.174;12.092;2023-01-15T00:47:43;99152.56;;;9.58;100.00
29505;BME280;16452;54.174;12.092;2023-01-15T00:50:13;99177.66;;;9.70;100.00
29505;BME280;16452;54.174;12.092;2023-01-15T00:52:39;99166.56;;;9.79;100.00
29505;BME280;16452;54.174;12.092;2023-01-15T00:55:07;99159.38;;;9.83;100.00
29505;BME280;16452;54.174;12.092;2023-01-15T00:57:33;99162.50;;;9.64;100.00
29505;BME280;16452;54.174;12.092;2023-01-15T00:59:59;99148.19;;;9.59;100.00
29505;BME280;16452;54.174;12.092;2023-01-15T01:02:25;99149.06;;;9.35;100.00
29505;BME280;16452;54.174;12.092;2023-01-15T01:04:51;99150.06;;;9.57;100.00
29505;BME280;16452;54.174;12.092;2023-01-15T01:07:16;99152.09;;;9.29;100.00
29505;BME280;16452;54.174;12.092;2023-01-15T01:09:43;99136.91;;;9.36;100.00
29505;BME280;16452;54.174;12.092;2023-01-15T01:12:09;99144.94;;;9.44;100.00
29505;BME280;16452;54.174;12.092;2023-01-15T01:14:36;99165.09;;;9.53;100.00
29505;BME280;16452;54.174;12.092;2023-01-15T01:17:02;99173.50;;;9.33;100.00
29505;BME280;16452;54.174;12.092;2023-01-15T01:19:28;99173.03;;;9.39;100.00
29505;BME280;16452;54.174;12.092;2023-01-15T01:21:54;99170.94;;;9.44;100.00
29505;BME280;16452;54.174;12.092;2023-01-15T01:24:22;99181.56;;;9.41;100.00
29505;BME280;16452;54.174;12.092;2023-01-15T01:26:49;99187.97;;;9.48;100.00
29505;BME280;16452;54.174;12.092;2023-01-15T01:29:18;99185.88;;;9.29;100.00
29505;BME280;16452;54.174;12.092;2023-01-15T01:31:45;99194.13;;;9.23;100.00
29505;BME280;16452;54.174;12.092;2023-01-15T01:34:12;99203.88;;;9.43;100.00
29505;BME280;16452;54.174;12.092;2023-01-15T01:36:41;99214.41;;;9.42;100.00
29505;BME280;16452;54.174;12.092;2023-01-15T01:39:14;99208.16;;;9.44;100.00
29505;BME280;16452;54.174;12.092;2023-01-15T01:41:41;99213.53;;;9.54;100.00
29505;BME280;16452;54.174;12.092;2023-01-15T01:47:00;99199.22;;;9.48;100.00
29505;BME280;16452;54.174;12.092;2023-01-15T01:49:27;99204.13;;;9.40;100.00
29505;BME280;16452;54.174;12.092;2023-01-15T01:52:03;99188.19;;;9.45;100.00
29505;BME280;16452;54.174;12.092;2023-01-15T01:54:33;99205.56;;;9.44;100.00
29505;BME280;16452;54.174;12.092;2023-01-15T01:57:01;99207.31;;;9.44;100.00
29505;BME280;16452;54.174;12.092;2023-01-15T01:59:27;99202.22;;;9.31;100.00
29505;BME280;16452;54.174;12.092;2023-01-15T02:01:54;99208.50;;;9.40;100.00
29505;BME280;16452;54.174;12.092;2023-01-15T02:04:21;99208.88;;;9.46;100.00
29505;BME280;16452;54.174;12.092;2023-01-15T02:06:48;99212.56;;;9.55;100.00
29505;BME280;16452;54.174;12.092;2023-01-15T02:09:14;99211.16;;;9.51;100.00
29505;BME280;16452;54.174;12.092;2023-01-15T02:11:39;99215.25;;;9.19;100.00
29505;BME280;16452;54.174;12.092;2023-01-15T02:14:22;99213.75;;;9.27;100.00
29505;BME280;16452;54.174;12.092;2023-01-15T02:17:19;99209.44;;;9.39;100.00
29505;BME280;16452;54.174;12.092;2023-01-15T02:20:18;99212.53;;;9.44;100.00
29505;BME280;16452;54.174;12.092;2023-01-15T02:26:20;99209.81;;;9.22;100.00
29505;BME280;16452;54.174;12.092;2023-01-15T02:28:50;99205.22;;;9.01;100.00
29505;BME280;16452;54.174;12.092;2023-01-15T02:31:38;99201.53;;;9.40;100.00
29505;BME280;16452;54.174;12.092;2023-01-15T02:34:19;99203.81;;;9.08;100.00
29505;BME280;16452;54.174;12.092;2023-01-15T02:36:53;99199.38;;;9.11;100.00
29505;BME280;16452;54.174;12.092;2023-01-15T02:39:22;99203.53;;;9.13;100.00
29505;BME280;16452;54.174;12.092;2023-01-15T02:41:51;99211.38;;;9.24;100.00
29505;BME280;16452;54.174;12.092;2023-01-15T02:44:21;99194.41;;;9.07;100.00
29505;BME280;16452;54.174;12.092;2023-01-15T02:46:48;99190.84;;;9.08;100.00
29505;BME280;16452;54.174;12.092;2023-01-15T02:49:18;99183.94;;;9.20;100.00
29505;BME280;16452;54.174;12.092;2023-01-15T02:51:54;99176.81;;;9.11;100.00
29505;BME280;16452;54.174;12.092;2023-01-15T02:54:24;99172.66;;;9.08;100.00
29505;BME280;16452;54.174;12.092;2023-01-15T02:56:52;99170.06;;;9.08;100.00
29505;BME280;16452;54.174;12.092;2023-01-15T02:59:32;99176.09;;;9.09;100.00
29505;BME280;16452;54.174;12.092;2023-01-15T03:02:04;99177.81;;;9.21;100.00
29505;BME280;16452;54.174;12.092;2023-01-15T03:05:12;99185.50;;;9.23;100.00
29505;BME280;16452;54.174;12.092;2023-01-15T03:07:49;99185.78;;;9.31;100.00
29505;BME280;16452;54.174;12.092;2023-01-15T03:10:16;99185.16;;;9.27;100.00
29505;BME280;16452;54.174;12.092;2023-01-15T03:13:00;99187.38;;;9.21;100.00
29505;BME280;16452;54.174;12.092;2023-01-15T03:18:24;99187.94;;;9.13;100.00
29505;BME280;16452;54.174;12.092;2023-01-15T03:20:56;99185.09;;;9.16;100.00
29505;BME280;16452;54.174;12.092;2023-01-15T03:23:25;99193.91;;;9.02;100.00
29505;BME280;16452;54.174;12.092;2023-01-15T03:25:53;99195.72;;;9.13;100.00
29505;BME280;16452;54.174;12.092;2023-01-15T03:28:26;99197.69;;;9.10;100.00
29505;BME280;16452;54.174;12.092;2023-01-15T03:30:54;99204.19;;;9.28;100.00
29505;BME280;16452;54.174;12.092;2023-01-15T03:33:20;99193.97;;;9.14;100.00
29505;BME280;16452;54.174;12.092;2023-01-15T03:35:54;99198.38;;;9.00;100.00
29505;BME280;16452;54.174;12.092;2023-01-15T03:38:26;99199.91;;;9.03;100.00
29505;BME280;16452;54.174;12.092;2023-01-15T03:52:43;99202.00;;;8.98;100.00
29505;BME280;16452;54.174;12.092;2023-01-15T03:58:28;99201.06;;;8.99;100.00
29505;BME280;16452;54.174;12.092;2023-01-15T04:00:59;99201.09;;;8.86;100.00
29505;BME280;16452;54.174;12.092;2023-01-15T04:03:27;99191.53;;;8.87;100.00
29505;BME280;16452;54.174;12.092;2023-01-15T04:05:58;99186.69;;;8.82;100.00
29505;BME280;16452;54.174;12.092;2023-01-15T04:08:26;99183.22;;;8.94;100.00
29505;BME280;16452;54.174;12.092;2023-01-15T04:10:56;99179.31;;;8.76;100.00
29505;BME280;16452;54.174;12.092;2023-01-15T04:13:23;99185.84;;;8.82;100.00
29505;BME280;16452;54.174;12.092;2023-01-15T04:15:50;99189.75;;;9.00;100.00
29505;BME280;16452;54.174;12.092;2023-01-15T04:18:16;99170.84;;;8.61;100.00
29505;BME280;16452;54.174;12.092;2023-01-15T04:20:42;99166.84;;;8.81;100.00
29505;BME280;16452;54.174;12.092;2023-01-15T04:23:08;99172.88;;;8.82;100.00
29505;BME280;16452;54.174;12.092;2023-01-15T04:25:33;99164.16;;;8.70;100.00
29505;BME280;16452;54.174;12.092;2023-01-15T04:27:59;99173.22;;;8.52;100.00
29505;BME280;16452;54.174;12.092;2023-01-15T04:30:25;99160.34;;;8.63;100.00
29505;BME280;16452;54.174;12.092;2023-01-15T04:32:51;99152.78;;;8.60;100.00
29505;BME280;16452;54.174;12.092;2023-01-15T04:35:18;99146.03;;;8.45;100.00
29505;BME280;16452;54.174;12.092;2023-01-15T04:37:45;99147.28;;;8.52;100.00
29505;BME280;16452;54.174;12.092;2023-01-15T04:40:12;99153.47;;;8.62;100.00
29505;BME280;16452;54.174;12.092;2023-01-15T04:42:58;99143.44;;;8.57;100.00
29505;BME280;16452;54.174;12.092;2023-01-15T04:45:45;99147.22;;;8.77;100.00
29505;BME280;16452;54.174;12.092;2023-01-15T04:48:11;99143.59;;;8.43;100.00
29505;BME280;16452;54.174;12.092;2023-01-15T04:50:38;99135.38;;;8.49;100.00
29505;BME280;16452;54.174;12.092;2023-01-15T04:53:04;99152.72;;;8.36;100.00
29505;BME280;16452;54.174;12.092;2023-01-15T04:55:30;99134.22;;;8.53;100.00
29505;BME280;16452;54.174;12.092;2023-01-15T04:57:56;99125.72;;;8.39;100.00
29505;BME280;16452;54.174;12.092;2023-01-15T05:00:22;99143.25;;;8.22;100.00
29505;BME280;16452;54.174;12.092;2023-01-15T05:02:48;99131.31;;;8.45;100.00
29505;BME280;16452;54.174;12.092;2023-01-15T05:05:15;99143.50;;;8.69;100.00
29505;BME280;16452;54.174;12.092;2023-01-15T05:07:40;99134.63;;;8.60;100.00
29505;BME280;16452;54.174;12.092;2023-01-15T05:10:07;99140.44;;;8.51;100.00
29505;BME280;16452;54.174;12.092;2023-01-15T05:12:33;99137.72;;;8.65;100.00
29505;BME280;16452;54.174;12.092;2023-01-15T05:14:59;99144.91;;;8.61;100.00
29505;BME280;16452;54.174;12.092;2023-01-15T05:17:25;99139.03;;;8.71;100.00
29505;BME280;16452;54.174;12.092;2023-01-15T05:19:51;99138.06;;;8.48;100.00
29505;BME280;16452;54.174;12.092;2023-01-15T05:22:16;99146.28;;;8.42;100.00
29505;BME280;16452;54.174;12.092;2023-01-15T05:24:42;99142.94;;;8.52;100.00
29505;BME280;16452;54.174;12.092;2023-01-15T05:27:08;99152.91;;;8.33;100.00
29505;BME280;16452;54.174;12.092;2023-01-15T05:29:33;99153.84;;;8.19;100.00
29505;BME280;16452;54.174;12.092;2023-01-15T05:32:00;99159.53;;;8.24;100.00
29505;BME280;16452;54.174;12.092;2023-01-15T05:34:25;99144.72;;;8.39;100.00
29505;BME280;16452;54.174;12.092;2023-01-15T05:36:51;99158.63;;;8.25;100.00
29505;BME280;16452;54.174;12.092;2023-01-15T05:39:17;99161.00;;;8.41;100.00
29505;BME280;16452;54.174;12.092;2023-01-15T05:41:42;99152.28;;;8.17;100.00
29505;BME280;16452;54.174;12.092;2023-01-15T05:46:44;99150.81;;;8.51;100.00
29505;BME280;16452;54.174;12.092;2023-01-15T05:49:17;99149.91;;;8.39;100.00
29505;BME280;16452;54.174;12.092;2023-01-15T05:51:43;99161.84;;;8.42;100.00
29505;BME280;16452;54.174;12.092;2023-01-15T05:54:21;99160.34;;;8.50;100.00
29505;BME280;16452;54.174;12.092;2023-01-15T05:56:47;99167.22;;;8.51;100.00
29505;BME280;16452;54.174;12.092;2023-01-15T05:59:15;99163.56;;;8.67;100.00
29505;BME280;16452;54.174;12.092;2023-01-15T06:01:41;99171.06;;;8.46;100.00
29505;BME280;16452;54.174;12.092;2023-01-15T06:04:08;99158.81;;;8.48;100.00
29505;BME280;16452;54.174;12.092;2023-01-15T06:06:35;99172.03;;;8.32;100.00
29505;BME280;16452;54.174;12.092;2023-01-15T06:09:02;99168.28;;;8.36;100.00
29505;BME280;16452;54.174;12.092;2023-01-15T06:11:28;99163.38;;;8.19;100.00
29505;BME280;16452;54.174;12.092;2023-01-15T06:13:53;99162.66;;;8.04;100.00
29505;BME280;16452;54.174;12.092;2023-01-15T06:16:20;99173.78;;;8.32;100.00
29505;BME280;16452;54.174;12.092;2023-01-15T06:18:46;99162.34;;;8.34;100.00
29505;BME280;16452;54.174;12.092;2023-01-15T06:21:13;99165.69;;;8.36;100.00
29505;BME280;16452;54.174;12.092;2023-01-15T06:23:39;99152.28;;;8.30;100.00
29505;BME280;16452;54.174;12.092;2023-01-15T06:26:13;99156.31;;;8.46;100.00
29505;BME280;16452;54.174;12.092;2023-01-15T06:28:40;99166.81;;;8.19;100.00
29505;BME280;16452;54.174;12.092;2023-01-15T06:31:13;99163.59;;;8.16;100.00
29505;BME280;16452;54.174;12.092;2023-01-15T06:33:39;99161.44;;;8.35;100.00
29505;BME280;16452;54.174;12.092;2023-01-15T06:36:08;99176.25;;;8.46;100.00
29505;BME280;16452;54.174;12.092;2023-01-15T06:38:36;99164.22;;;8.45;100.00
29505;BME280;16452;54.174;12.092;2023-01-15T06:41:04;99174.28;;;8.49;100.00
29505;BME280;16452;54.174;12.092;2023-01-15T06:43:50;99173.47;;;8.36;100.00
29505;BME280;16452;54.174;12.092;2023-01-15T06:46:35;99174.16;;;8.51;100.00
29505;BME280;16452;54.174;12.092;2023-01-15T06:49:19;99183.34;;;8.44;100.00
29505;BME280;16452;54.174;12.092;2023-01-15T06:51:45;99183.19;;;8.58;100.00
29505;BME280;16452;54.174;12.092;2023-01-15T06:54:11;99179.03;;;8.17;100.00
29505;BME280;16452;54.174;12.092;2023-01-15T06:56:36;99171.06;;;8.20;100.00
29505;BME280;16452;54.174;12.092;2023-01-15T06:59:02;99181.13;;;8.12;100.00
29505;BME280;16452;54.174;12.092;2023-01-15T07:01:28;99187.84;;;8.27;100.00
29505;BME280;16452;54.174;12.092;2023-01-15T07:03:55;99182.38;;;8.07;100.00
29505;BME280;16452;54.174;12.092;2023-01-15T07:06:21;99174.59;;;8.19;100.00
29505;BME280;16452;54.174;12.092;2023-01-15T07:08:47;99186.13;;;8.03;100.00
29505;BME280;16452;54.174;12.092;2023-01-15T07:11:13;99182.16;;;7.97;100.00
29505;BME280;16452;54.174;12.092;2023-01-15T07:13:38;99186.41;;;7.98;100.00
29505;BME280;16452;54.174;12.092;2023-01-15T07:16:04;99180.72;;;8.06;100.00
29505;BME280;16452;54.174;12.092;2023-01-15T07:18:50;99182.06;;;8.24;100.00
29505;BME280;16452;54.174;12.092;2023-01-15T07:21:16;99185.78;;;8.07;100.00
29505;BME280;16452;54.174;12.092;2023-01-15T07:23:41;99182.16;;;8.10;100.00
29505;BME280;16452;54.174;12.092;2023-01-15T07:26:07;99193.34;;;7.85;100.00
29505;BME280;16452;54.174;12.092;2023-01-15T07:28:33;99192.00;;;7.92;100.00
29505;BME280;16452;54.174;12.092;2023-01-15T07:30:59;99200.41;;;7.96;100.00
29505;BME280;16452;54.174;12.092;2023-01-15T07:33:24;99180.16;;;7.88;100.00
29505;BME280;16452;54.174;12.092;2023-01-15T07:35:50;99190.97;;;8.07;100.00
29505;BME280;16452;54.174;12.092;2023-01-15T07:38:16;99195.97;;;7.98;100.00
29505;BME280;16452;54.174;12.092;2023-01-15T07:40:41;99194.06;;;7.87;100.00
29505;BME280;16452;54.174;12.092;2023-01-15T07:43:09;99196.06;;;7.96;100.00
29505;BME280;16452;54.174;12.092;2023-01-15T07:45:53;99199.69;;;8.06;100.00
29505;BME280;16452;54.174;12.092;2023-01-15T07:48:37;99189.63;;;8.02;100.00
29505;BME280;16452;54.174;12.092;2023-01-15T07:51:21;99179.44;;;7.99;100.00
29505;BME280;16452;54.174;12.092;2023-01-15T07:53:47;99175.94;;;8.12;100.00
29505;BME280;16452;54.174;12.092;2023-01-15T07:56:14;99187.25;;;7.86;100.00
29505;BME280;16452;54.174;12.092;2023-01-15T07:58:40;99182.56;;;7.91;100.00
29505;BME280;16452;54.174;12.092;2023-01-15T08:01:06;99178.50;;;7.87;100.00
29505;BME280;16452;54.174;12.092;2023-01-15T08:03:31;99168.47;;;8.08;100.00
29505;BME280;16452;54.174;12.092;2023-01-15T08:05:57;99179.88;;;8.05;100.00
29505;BME280;16452;54.174;12.092;2023-01-15T08:08:23;99181.53;;;7.94;100.00
29505;BME280;16452;54.174;12.092;2023-01-15T08:10:48;99189.84;;;7.86;100.00
29505;BME280;16452;54.174;12.092;2023-01-15T08:13:52;99166.50;;;7.86;100.00
29505;BME280;16452;54.174;12.092;2023-01-15T08:16:37;99175.94;;;8.00;100.00
29505;BME280;16452;54.174;12.092;2023-01-15T08:19:03;99172.59;;;8.10;100.00
29505;BME280;16452;54.174;12.092;2023-01-15T08:21:29;99177.69;;;7.99;100.00
29505;BME280;16452;54.174;12.092;2023-01-15T08:23:54;99174.03;;;7.76;100.00
29505;BME280;16452;54.174;12.092;2023-01-15T08:26:20;99182.63;;;7.64;100.00
29505;BME280;16452;54.174;12.092;2023-01-15T08:28:46;99187.84;;;7.77;100.00
29505;BME280;16452;54.174;12.092;2023-01-15T08:31:11;99192.84;;;7.80;100.00
29505;BME280;16452;54.174;12.092;2023-01-15T08:33:37;99191.56;;;7.73;100.00
29505;BME280;16452;54.174;12.092;2023-01-15T08:36:03;99206.81;;;7.77;100.00
29505;BME280;16452;54.174;12.092;2023-01-15T08:38:29;99202.16;;;7.82;100.00
29505;BME280;16452;54.174;12.092;2023-01-15T08:40:55;99207.03;;;8.00;100.00
29505;BME280;16452;54.174;12.092;2023-01-15T08:43:26;99201.16;;;7.98;100.00
29505;BME280;16452;54.174;12.092;2023-01-15T08:45:58;99195.66;;;8.02;100.00
29505;BME280;16452;54.174;12.092;2023-01-15T08:48:26;99199.66;;;7.94;100.00
29505;BME280;16452;54.174;12.092;2023-01-15T08:50:52;99193.53;;;7.82;100.00
29505;BME280;16452;54.174;12.092;2023-01-15T08:53:18;99191.59;;;7.98;100.00
29505;BME280;16452;54.174;12.092;2023-01-15T08:55:46;99185.38;;;8.01;100.00
29505;BME280;16452;54.174;12.092;2023-01-15T08:58:12;99192.94;;;7.78;100.00
29505;BME280;16452;54.174;12.092;2023-01-15T09:00:38;99197.09;;;8.06;100.00
29505;BME280;16452;54.174;12.092;2023-01-15T09:03:03;99188.28;;;7.96;100.00
29505;BME280;16452;54.174;12.092;2023-01-15T09:05:29;99190.97;;;8.07;100.00
29505;BME280;16452;54.174;12.092;2023-01-15T09:07:55;99191.97;;;8.32;100.00
29505;BME280;16452;54.174;12.092;2023-01-15T09:10:21;99189.53;;;8.16;100.00
29505;BME280;16452;54.174;12.092;2023-01-15T09:12:47;99192.66;;;8.21;100.00
29505;BME280;16452;54.174;12.092;2023-01-15T09:15:13;99191.19;;;8.17;100.00
29505;BME280;16452;54.174;12.092;2023-01-15T09:17:39;99196.91;;;8.60;100.00
29505;BME280;16452;54.174;12.092;2023-01-15T09:20:09;99185.38;;;8.39;100.00
29505;BME280;16452;54.174;12.092;2023-01-15T09:22:35;99194.94;;;8.51;100.00
29505;BME280;16452;54.174;12.092;2023-01-15T09:25:01;99187.44;;;8.59;100.00
29505;BME280;16452;54.174;12.092;2023-01-15T09:27:27;99191.88;;;8.70;100.00
29505;BME280;16452;54.174;12.092;2023-01-15T09:29:54;99190.88;;;8.72;100.00
29505;BME280;16452;54.174;12.092;2023-01-15T09:32:20;99211.72;;;8.83;100.00
29505;BME280;16452;54.174;12.092;2023-01-15T09:34:45;99198.06;;;8.56;100.00
29505;BME280;16452;54.174;12.092;2023-01-15T09:37:11;99196.16;;;8.58;100.00
29505;BME280;16452;54.174;12.092;2023-01-15T09:39:37;99203.00;;;8.72;100.00
29505;BME280;16452;54.174;12.092;2023-01-15T09:42:18;99204.88;;;8.70;100.00
29505;BME280;16452;54.174;12.092;2023-01-15T09:45:09;99199.53;;;9.20;100.00
29505;BME280;16452;54.174;12.092;2023-01-15T09:47:58;99198.81;;;9.18;100.00
29505;BME280;16452;54.174;12.092;2023-01-15T09:50:41;99190.41;;;9.15;99.77
29505;BME280;16452;54.174;12.092;2023-01-15T09:56:25;99199.09;;;9.02;99.70
29505;BME280;16452;54.174;12.092;2023-01-15T09:58:53;99193.19;;;9.24;99.83
29505;BME280;16452;54.174;12.092;2023-01-15T10:01:27;99201.81;;;9.25;98.86
29505;BME280;16452;54.174;12.092;2023-01-15T10:04:10;99201.56;;;9.04;99.97
29505;BME280;16452;54.174;12.092;2023-01-15T10:07:00;99197.88;;;9.19;99.37
29505;BME280;16452;54.174;12.092;2023-01-15T10:09:33;99188.13;;;9.10;98.44
29505;BME280;16452;54.174;12.092;2023-01-15T10:12:15;99179.56;;;8.97;98.35
29505;BME280;16452;54.174;12.092;2023-01-15T10:15:25;99187.56;;;8.94;98.34
29505;BME280;16452;54.174;12.092;2023-01-15T10:17:57;99180.63;;;8.94;97.56
29505;BME280;16452;54.174;12.092;2023-01-15T10:26:37;99170.44;;;9.15;96.91
29505;BME280;16452;54.174;12.092;2023-01-15T10:29:43;99170.69;;;9.36;93.30
29505;BME280;16452;54.174;12.092;2023-01-15T10:32:49;99161.06;;;9.25;91.26
29505;BME280;16452;54.174;12.092;2023-01-15T10:35:51;99168.13;;;8.99;91.38
29505;BME280;16452;54.174;12.092;2023-01-15T10:38:32;99165.53;;;8.99;91.90
29505;BME280;16452;54.174;12.092;2023-01-15T10:46:57;99160.38;;;8.87;90.48
29505;BME280;16452;54.174;12.092;2023-01-15T10:49:28;99165.66;;;8.85;91.09
29505;BME280;16452;54.174;12.092;2023-01-15T10:52:05;99164.97;;;8.83;90.69
29505;BME280;16452;54.174;12.092;2023-01-15T10:54:43;99162.91;;;8.76;89.75
29505;BME280;16452;54.174;12.092;2023-01-15T10:57:23;99169.06;;;8.98;89.28
29505;BME280;16452;54.174;12.092;2023-01-15T10:59:58;99172.75;;;8.83;89.59
29505;BME280;16452;54.174;12.092;2023-01-15T11:02:39;99161.56;;;8.70;88.47
29505;BME280;16452;54.174;12.092;2023-01-15T11:05:14;99169.00;;;8.87;89.30
29505;BME280;16452;54.174;12.092;2023-01-15T11:07:51;99175.31;;;8.96;88.43
29505;BME280;16452;54.174;12.092;2023-01-15T11:10:20;99166.06;;;8.92;87.96
29505;BME280;16452;54.174;12.092;2023-01-15T11:13:21;99163.00;;;9.11;88.89
29505;BME280;16452;54.174;12.092;2023-01-15T11:16:20;99187.09;;;9.13;88.54
29505;BME280;16452;54.174;12.092;2023-01-15T11:19:28;99157.91;;;9.09;85.98
29505;BME280;16452;54.174;12.092;2023-01-15T11:22:17;99147.75;;;9.30;85.63
29505;BME280;16452;54.174;12.092;2023-01-15T11:24:57;99174.13;;;9.36;83.85
29505;BME280;16452;54.174;12.092;2023-01-15T11:27:28;99166.31;;;9.13;82.04
29505;BME280;16452;54.174;12.092;2023-01-15T11:29:58;99154.22;;;9.24;81.97
29505;BME280;16452;54.174;12.092;2023-01-15T11:32:30;99158.09;;;9.19;82.85
29505;BME280;16452;54.174;12.092;2023-01-15T11:37:28;99144.59;;;9.37;80.21
29505;BME280;16452;54.174;12.092;2023-01-15T11:39:59;99144.72;;;9.12;79.95
29505;BME280;16452;54.174;12.092;2023-01-15T11:42:31;99151.75;;;9.34;77.63
29505;BME280;16452;54.174;12.092;2023-01-15T11:45:20;99149.84;;;9.25;78.36
29505;BME280;16452;54.174;12.092;2023-01-15T11:48:21;99152.59;;;9.11;78.27
29505;BME280;16452;54.174;12.092;2023-01-15T11:53:41;99144.91;;;9.09;78.08
29505;BME280;16452;54.174;12.092;2023-01-15T11:56:14;99129.97;;;9.13;77.53
29505;BME280;16452;54.174;12.092;2023-01-15T11:58:53;99139.00;;;9.31;76.34
29505;BME280;16452;54.174;12.092;2023-01-15T12:01:31;99121.19;;;9.02;76.19
29505;BME280;16452;54.174;12.092;2023-01-15T12:04:02;99119.78;;;9.10;76.26
29505;BME280;16452;54.174;12.092;2023-01-15T12:06:29;99126.63;;;9.11;75.94
29505;BME280;16452;54.174;12.092;2023-01-15T12:20:50;99098.13;;;8.98;75.07
29505;BME280;16452;54.174;12.092;2023-01-15T12:23:50;99099.19;;;8.95;74.71
29505;BME280;16452;54.174;12.092;2023-01-15T12:26:30;99095.97;;;9.27;75.60
29505;BME280;16452;54.174;12.092;2023-01-15T12:29:28;99093.34;;;8.92;75.60
29505;BME280;16452;54.174;12.092;2023-01-15T12:32:02;99107.06;;;9.18;74.87
29505;BME280;16452;54.174;12.092;2023-01-15T12:35:01;99102.50;;;9.32;74.15
29505;BME280;16452;54.174;12.092;2023-01-15T12:37:52;99109.28;;;9.11;75.20
29505;BME280;16452;54.174;12.092;2023-01-15T12:41:03;99098.63;;;9.38;72.75
29505;BME280;16452;54.174;12.092;2023-01-15T12:43:29;99097.16;;;9.23;73.04
29505;BME280;16452;54.174;12.092;2023-01-15T12:46:21;99092.63;;;9.37;72.52
29505;BME280;16452;54.174;12.092;2023-01-15T12:48:57;99096.63;;;9.06;72.74
29505;BME280;16452;54.174;12.092;2023-01-15T12:51:38;99081.47;;;9.24;71.93
29505;BME280;16452;54.174;12.092;2023-01-15T12:54:12;99078.78;;;9.02;72.20
29505;BME280;16452;54.174;12.092;2023-01-15T12:56:58;99068.91;;;9.07;72.18
29505;BME280;16452;54.174;12.092;2023-01-15T12:59:42;99060.72;;;9.00;71.56
29505;BME280;16452;54.174;12.092;2023-01-15T13:05:46;99072.56;;;9.16;72.46
29505;BME280;16452;54.174;12.092;2023-01-15T13:08:33;99067.22;;;9.06;73.58
29505;BME280;16452;54.174;12.092;2023-01-15T13:11:00;99055.72;;;8.97;73.71
29505;BME280;16452;54.174;12.092;2023-01-15T13:13:34;99055.09;;;8.83;74.07
29505;BME280;16452;54.174;12.092;2023-01-15T13:16:21;99059.88;;;9.00;73.09
29505;BME280;16452;54.174;12.092;2023-01-15T13:19:37;99065.03;;;8.65;72.85
29505;BME280;16452;54.174;12.092;2023-01-15T13:22:15;99073.31;;;8.94;74.02
29505;BME280;16452;54.174;12.092;2023-01-15T13:28:12;99068.19;;;8.81;75.12
29505;BME280;16452;54.174;12.092;2023-01-15T13:33:50;99075.19;;;8.68;75.79
29505;BME280;16452;54.174;12.092;2023-01-15T13:36:44;99099.72;;;8.88;76.15
29505;BME280;16452;54.174;12.092;2023-01-15T13:39:18;99114.22;;;8.79;78.36
29505;BME280;16452;54.174;12.092;2023-01-15T13:41:48;99080.28;;;8.33;82.60
29505;BME280;16452;54.174;12.092;2023-01-15T13:44:46;99075.03;;;8.09;87.26
29505;BME280;16452;54.174;12.092;2023-01-15T13:47:22;99072.09;;;8.14;87.80
29505;BME280;16452;54.174;12.092;2023-01-15T13:49:55;99069.69;;;8.23;87.75
29505;BME280;16452;54.174;12.092;2023-01-15T13:52:30;99060.88;;;8.26;87.49
29505;BME280;16452;54.174;12.092;2023-01-15T13:55:00;99063.78;;;8.21;85.96
29505;BME280;16452;54.174;12.092;2023-01-15T13:57:36;99060.06;;;8.13;86.16
29505;BME280;16452;54.174;12.092;2023-01-15T14:00:32;99069.72;;;8.11;86.32
29505;BME280;16452;54.174;12.092;2023-01-15T14:03:01;99070.88;;;7.94;85.43
29505;BME280;16452;54.174;12.092;2023-01-15T14:05:33;99063.66;;;7.74;87.44
29505;BME280;16452;54.174;12.092;2023-01-15T14:08:02;99064.16;;;7.66;89.29
29505;BME280;16452;54.174;12.092;2023-01-15T14:10:39;99068.19;;;7.45;91.49
29505;BME280;16452;54.174;12.092;2023-01-15T14:13:51;99061.88;;;7.62;91.27
29505;BME280;16452;54.174;12.092;2023-01-15T14:16:40;99056.91;;;7.84;91.50
29505;BME280;16452;54.174;12.092;2023-01-15T14:28:01;99026.59;;;7.09;100.00
29505;BME280;16452;54.174;12.092;2023-01-15T14:31:07;99023.91;;;7.23;100.00
29505;BME280;16452;54.174;12.092;2023-01-15T14:33:45;99022.69;;;7.16;100.00
29505;BME280;16452;54.174;12.092;2023-01-15T14:36:27;99015.63;;;7.30;98.95
29505;BME280;16452;54.174;12.092;2023-01-15T14:38:59;99028.19;;;7.36;99.50